SBOSBO ARN / ESSA
Speedbird OnlineSpeedbird Online ARN / ESSA

Stockholm-Arlanda Airport
01:41 0.4°C

Location Stockholm, Sweden
Latitude: 59.651901245117
Longitude: 17.918600082397
Web Airport Website | Wikipedia
Altitude 42 Meter / 137 Feet
Distance 1,431 KM / 889 Miles
from London.
Time Zone UTC +1 hours (Europe/Stockholm)
Codes IATA: ARN
ICAO: ESSA
Currency £1 equals SEK 12.75
Runways
RunwayLength (m)Surface
01L3301Asphalt
01R2500Asphalt
082500Asphalt
19L2500Asphalt
19R3301Asphalt
262500Asphalt
Radio
TypeDescriptionFrequency
APPSTOCKHOLM CON123.75
ATISATIS119
CLDCLNC DEL121.825
GNDGND121.7
PMSVMET OFFICE122.6
TWRTWR118.5
Live ATC
METAR ESSA 081420Z 23013KT 9999 BKN015 05/02 Q1029 TEMPO BKN013
TAF TAF ESSA 081430Z 0815/0915 23012KT 9999 BKN015 PROB40 0815/0817 BKN009 TEMPO 0817/0821 BKN012 BECMG 0820/0822 21015G25KT
Weather As Of 09 Feb 2023 01:41
Description Clear sky
Wind 28 km/h from South-West (210°)
Cloud Cover 0%
Precipitation Rain: none, Snow: none
Sunrise 07:42
Sunset 16:22
Lounges Norrsken, 5
Menzies Aurora Lounge , Terminal 2
Rotations During the last 90 days there were
320 flights from LHR
318 flights to LHR



Support Speedbird Online

© 2017-2023 Speedbird Online